Impacts TAF Board
For situational awareness. Not to be used for flight planning purposes.
IDs:

KCVG - Cincinnati Intl, KY, US

Issued at 2337 UTC 18 Dec 2018
Updated at 0010 UTC 19 Dec 2018
Potential Impact None Slight Moderate High
Time2352Z 19/01Z 19/02Z 19/03Z 19/04Z 19/05Z 19/06Z 19/07Z 19/08Z 19/09Z 19/10Z 19/11Z 19/12Z 19/13Z>>
Type OBS PRVL PRVL PRVL PRVL PRVL PRVL PRVL PRVL PRVL PRVL PRVL PRVL PRVL
VIS 10 >6 >6 >6 >6 >6 >6 >6 >6 >6 >6 >6 >6 >6
CIG -- -- -- -- -- -- -- -- -- -- -- -- -- --
Cover FEW SCT SCT SCT SCT SCT SCT SCT SCT SCT SCT SCT SCT SCT
FltCat VFR VFR VFR VFR VFR VFR VFR VFR VFR VFR VFR VFR VFR VFR
WX -- -- -- -- -- -- -- -- -- -- -- -- -- --
WDir VRB 150 150 150 150 150 150 150 150 150 150 150 150 150
WSpd 0 4 4 4 4 4 4 4 4 4 4 4 4 4
WGst -- -- -- -- -- -- -- -- -- -- -- -- -- --
Raw TAF
KCVG 182337Z 1900/2006 15004KT P6SM SCT250
  FM191500 19008KT P6SM BKN250


Raw METAR
KCVG 182352Z 00000KT 10SM FEW250 02/M02 A3015 RMK AO2 SLP214 T00221022 10072 20022 55002
KCVG 182252Z 10005KT 10SM SCT250 04/M02 A3014 RMK AO2 SLP212 T00391022
KCVG 182152Z 07004KT 10SM BKN250 06/M03 A3015 RMK AO2 SLP213 T00611028

METAR Board
Radar Display
Forecast Discussion
For situational awareness. Not to be used for flight planning purposes.